Time;durP1;ratioP1;P1;durP2;ratioP2;P2;SDS_P1;SDS_P2;PMS_P1;PMS_P2;Temp;Humidity;BMP_temperature;BMP_pressure;BME280_temperature;BME280_humidity;BME280_pressure;Samples;Min_cycle;Max_cycle;Signal;HPM_P1;HPM_P2
2024/03/04 00:01:25;;;;;;;;;;;;;;;13.12;69.81;99588.72;4860642;29;19923;-83
2024/03/04 00:04:17;;;;;;;;;;;;;;;13.11;70.37;99598.03;4833293;29;19916;-82
2024/03/04 00:07:12;;;;;;;;;;;;;;;13.07;70.79;99590.91;4840060;29;19916;-83
2024/03/04 00:10:04;;;;;;;;;;;;;;;13.16;71.19;99594.22;4832157;29;19920;-82
2024/03/04 00:12:55;;;;;;;;;;;;;;;13.20;71.22;99584.19;4832217;29;19917;-83
2024/03/04 00:15:47;;;;;;;;;;;;;;;13.21;71.70;99589.28;4851913;29;19920;-81
2024/03/04 00:18:39;;;;;;;;;;;;;;;13.22;72.10;99598.25;4838150;29;19995;-82
2024/03/04 00:21:28;;;;;;;;;;;;;;;13.33;72.50;99603.94;4856737;29;19915;-83
2024/03/04 00:24:20;;;;;;;;;;;;;;;13.51;72.39;99591.44;4839664;29;19920;-82
2024/03/04 00:27:12;;;;;;;;;;;;;;;13.49;72.69;99599.19;4849002;29;19920;-82
2024/03/04 00:30:04;;;;;;;;;;;;;;;13.37;71.78;99602.84;4854170;29;19916;-83
2024/03/04 00:32:56;;;;;;;;;;;;;;;13.32;72.46;99608.59;4831070;29;19916;-82
2024/03/04 00:35:49;;;;;;;;;;;;;;;13.32;72.87;99597.69;4840356;29;20398;-82
2024/03/04 00:38:41;;;;;;;;;;;;;;;13.36;73.03;99586.84;4831165;29;19917;-82
2024/03/04 00:41:33;;;;;;;;;;;;;;;13.51;73.36;99577.78;4845323;29;19924;-82
2024/03/04 00:44:25;;;;;;;;;;;;;;;13.37;72.99;99575.53;4857936;29;19924;-82
2024/03/04 00:47:18;;;;;;;;;;;;;;;13.43;73.09;99578.78;4851609;29;19915;-82
2024/03/04 00:50:10;;;;;;;;;;;;;;;13.41;72.21;99576.41;4833875;29;19916;-82
2024/03/04 00:53:02;;;;;;;;;;;;;;;13.32;72.38;99575.84;4855891;29;19916;-82
2024/03/04 00:55:54;;;;;;;;;;;;;;;13.37;72.05;99572.03;4824635;29;20387;-82
2024/03/04 00:58:46;;;;;;;;;;;;;;;13.36;72.03;99560.31;4833055;29;20398;-82
2024/03/04 01:01:38;;;;;;;;;;;;;;;13.10;72.22;99560.97;4848630;29;19916;-83
2024/03/04 01:04:30;;;;;;;;;;;;;;;13.07;71.74;99569.06;4825384;29;19917;-82
2024/03/04 01:07:22;;;;;;;;;;;;;;;12.96;72.00;99568.06;4830146;29;19917;-81
2024/03/04 01:10:14;;;;;;;;;;;;;;;12.94;72.07;99570.38;4851285;29;20378;-82
2024/03/04 01:13:03;;;;;;;;;;;;;;;12.84;72.16;99569.81;4858255;29;20596;-81
2024/03/04 01:15:58;;;;;;;;;;;;;;;12.86;72.16;99570.22;4831577;29;20389;-83
2024/03/04 01:18:50;;;;;;;;;;;;;;;12.86;71.71;99572.94;4854419;29;19916;-82
2024/03/04 01:21:43;;;;;;;;;;;;;;;12.82;71.66;99569.34;4840179;29;19916;-83
2024/03/04 01:24:35;;;;;;;;;;;;;;;12.87;70.96;99571.00;4830584;29;20418;-82
2024/03/04 01:27:27;;;;;;;;;;;;;;;13.01;70.74;99565.03;4835786;29;20410;-83
2024/03/04 01:30:19;;;;;;;;;;;;;;;13.06;70.00;99573.75;4844719;29;20319;-81
2024/03/04 01:33:10;;;;;;;;;;;;;;;13.02;69.61;99572.09;4840850;29;19917;-81
2024/03/04 01:36:02;;;;;;;;;;;;;;;13.05;69.31;99571.38;4846195;29;19924;-80
2024/03/04 01:38:54;;;;;;;;;;;;;;;12.95;69.07;99577.41;4844913;29;19916;-81
2024/03/04 01:41:46;;;;;;;;;;;;;;;12.88;69.14;99571.81;4848909;29;20394;-82
2024/03/04 01:44:38;;;;;;;;;;;;;;;12.88;69.14;99580.00;4830927;29;19916;-82
2024/03/04 01:47:30;;;;;;;;;;;;;;;12.80;69.32;99574.38;4843646;29;19916;-83
2024/03/04 01:50:22;;;;;;;;;;;;;;;12.84;68.75;99574.47;4837482;29;19916;-82
2024/03/04 01:53:15;;;;;;;;;;;;;;;12.83;68.37;99570.94;4844680;29;20301;-82
2024/03/04 01:56:08;;;;;;;;;;;;;;;12.97;68.38;99564.19;4823997;29;20394;-81
2024/03/04 01:59:01;;;;;;;;;;;;;;;12.88;68.11;99577.25;4837065;29;20394;-82
2024/03/04 02:01:52;;;;;;;;;;;;;;;12.91;68.24;99577.31;4856829;29;19916;-82
2024/03/04 02:04:45;;;;;;;;;;;;;;;13.05;68.35;99558.53;4835081;29;20302;-81
2024/03/04 02:07:37;;;;;;;;;;;;;;;13.08;68.00;99576.13;4830261;29;19920;-82
2024/03/04 02:10:29;;;;;;;;;;;;;;;13.02;68.46;99572.09;4851156;29;19991;-81
2024/03/04 02:13:21;;;;;;;;;;;;;;;12.92;68.79;99567.19;4847177;29;19916;-82
2024/03/04 02:16:13;;;;;;;;;;;;;;;12.89;69.02;99584.31;4831565;29;19920;-81
2024/03/04 02:19:05;;;;;;;;;;;;;;;12.76;69.21;99580.91;4855653;29;19919;-82
2024/03/04 02:22:03;;;;;;;;;;;;;;;12.68;69.76;99582.69;4835293;29;19916;-82
2024/03/04 02:24:55;;;;;;;;;;;;;;;12.74;69.50;99583.22;4835765;29;20410;-82
2024/03/04 02:27:47;;;;;;;;;;;;;;;12.68;69.75;99579.19;4844818;29;19920;-82
2024/03/04 02:30:39;;;;;;;;;;;;;;;12.69;69.25;99584.28;4836050;29;19920;-81
2024/03/04 02:33:31;;;;;;;;;;;;;;;12.76;68.52;99580.91;4830172;29;19916;-82
2024/03/04 02:36:23;;;;;;;;;;;;;;;12.76;68.02;99581.69;4828667;29;19925;-81
2024/03/04 02:39:13;;;;;;;;;;;;;;;12.71;67.71;99579.25;4835357;29;19920;-80
2024/03/04 02:42:07;;;;;;;;;;;;;;;12.74;67.61;99580.50;4847744;29;19916;-82
2024/03/04 02:44:59;;;;;;;;;;;;;;;12.71;68.04;99587.44;4837104;29;19916;-83
2024/03/04 02:47:49;;;;;;;;;;;;;;;12.65;67.65;99580.66;4828809;29;19916;-83
2024/03/04 02:50:41;;;;;;;;;;;;;;;12.63;67.71;99574.81;4849409;29;19917;-80
2024/03/04 02:53:33;;;;;;;;;;;;;;;12.69;66.82;99581.56;4829384;29;19916;-82
2024/03/04 02:56:25;;;;;;;;;;;;;;;12.65;66.21;99582.59;4833903;29;19920;-82
2024/03/04 02:59:17;;;;;;;;;;;;;;;12.63;66.26;99582.97;4852663;29;19917;-82
2024/03/04 03:02:09;;;;;;;;;;;;;;;12.66;65.46;99582.25;4835660;29;19921;-82
2024/03/04 03:05:01;;;;;;;;;;;;;;;12.67;64.83;99588.50;4833496;29;19917;-82
2024/03/04 03:07:53;;;;;;;;;;;;;;;12.67;64.73;99585.78;4858049;29;19916;-82
2024/03/04 03:10:45;;;;;;;;;;;;;;;12.69;64.02;99592.47;4848542;29;19924;-82
2024/03/04 03:13:37;;;;;;;;;;;;;;;12.58;63.87;99602.34;4849301;29;19916;-81
2024/03/04 03:16:30;;;;;;;;;;;;;;;12.54;63.61;99601.47;4837512;29;20418;-81
2024/03/04 03:19:28;;;;;;;;;;;;;;;12.52;64.15;99611.16;4846205;29;19917;-81
2024/03/04 03:22:20;;;;;;;;;;;;;;;12.54;64.07;99606.16;4844067;29;19920;-80
2024/03/04 03:25:12;;;;;;;;;;;;;;;12.57;64.81;99606.22;4842741;29;19917;-81
2024/03/04 03:28:04;;;;;;;;;;;;;;;12.50;65.26;99616.94;4847414;29;19916;-81
2024/03/04 03:30:56;;;;;;;;;;;;;;;12.47;65.54;99623.13;4850274;29;19924;-82
2024/03/04 03:33:48;;;;;;;;;;;;;;;12.34;65.28;99621.66;4829797;29;19916;-83
2024/03/04 03:36:41;;;;;;;;;;;;;;;12.38;65.51;99627.97;4829776;29;19947;-82
2024/03/04 03:39:33;;;;;;;;;;;;;;;12.40;65.83;99628.41;4852602;29;19916;-82
2024/03/04 03:42:25;;;;;;;;;;;;;;;12.38;65.70;99634.22;4844571;29;19924;-82
2024/03/04 03:45:17;;;;;;;;;;;;;;;12.30;66.72;99637.13;4857146;29;19916;-81
2024/03/04 03:48:15;;;;;;;;;;;;;;;12.32;67.05;99643.81;4851872;29;20410;-82
2024/03/04 03:51:07;;;;;;;;;;;;;;;12.24;67.44;99647.50;4856648;29;19920;-81
2024/03/04 03:53:59;;;;;;;;;;;;;;;12.22;66.85;99649.78;4851421;29;19916;-82
2024/03/04 03:56:51;;;;;;;;;;;;;;;12.19;67.90;99655.16;4824507;29;19920;-82
2024/03/04 03:59:43;;;;;;;;;;;;;;;12.23;68.13;99653.31;4843915;29;20394;-82
2024/03/04 04:02:35;;;;;;;;;;;;;;;12.17;69.20;99646.53;4847848;29;20398;-83
2024/03/04 04:05:27;;;;;;;;;;;;;;;12.24;69.63;99641.28;4844914;29;19920;-81
2024/03/04 04:08:19;;;;;;;;;;;;;;;12.12;69.93;99633.97;4849435;29;19924;-82
2024/03/04 04:11:12;;;;;;;;;;;;;;;12.20;69.47;99637.66;4845644;29;19916;-81
2024/03/04 04:14:04;;;;;;;;;;;;;;;12.31;69.27;99636.78;4830274;29;19916;-82
2024/03/04 04:16:56;;;;;;;;;;;;;;;12.26;68.70;99649.88;4849306;29;19924;-84
2024/03/04 04:19:48;;;;;;;;;;;;;;;12.25;68.85;99648.28;4853040;29;19917;-83
2024/03/04 04:22:40;;;;;;;;;;;;;;;12.20;68.92;99651.28;4834237;29;19916;-82
2024/03/04 04:25:32;;;;;;;;;;;;;;;12.14;69.16;99658.91;4834088;29;19917;-82
2024/03/04 04:28:24;;;;;;;;;;;;;;;12.18;69.79;99665.28;4839917;29;19916;-82
2024/03/04 04:31:20;;;;;;;;;;;;;;;12.09;70.66;99664.63;4849307;29;20310;-82
2024/03/04 04:34:11;;;;;;;;;;;;;;;12.07;71.54;99668.88;4839523;29;19928;-81
2024/03/04 04:37:04;;;;;;;;;;;;;;;11.99;71.39;99668.66;4843754;29;19920;-83
2024/03/04 04:39:55;;;;;;;;;;;;;;;11.96;71.83;99674.81;4833543;29;19920;-82
2024/03/04 04:42:48;;;;;;;;;;;;;;;11.96;71.93;99680.28;4822206;29;19916;-81
2024/03/04 04:45:40;;;;;;;;;;;;;;;11.91;71.87;99675.09;4853829;29;19916;-82
2024/03/04 04:48:32;;;;;;;;;;;;;;;11.94;71.96;99684.47;4837084;29;20383;-83
2024/03/04 04:51:25;;;;;;;;;;;;;;;11.97;71.96;99678.34;4840375;29;20343;-82
2024/03/04 04:54:14;;;;;;;;;;;;;;;11.94;71.85;99677.09;4855468;29;19920;-82
2024/03/04 04:57:06;;;;;;;;;;;;;;;11.86;72.52;99685.44;4841582;29;19920;-81
2024/03/04 04:59:58;;;;;;;;;;;;;;;11.82;72.81;99688.06;4829864;29;20386;-82
2024/03/04 05:02:50;;;;;;;;;;;;;;;11.80;73.11;99693.06;4837287;29;19916;-81
2024/03/04 05:05:42;;;;;;;;;;;;;;;11.83;73.18;99684.22;4848056;29;19920;-82
2024/03/04 05:08:34;;;;;;;;;;;;;;;11.82;74.09;99693.53;4846024;29;20383;-81
2024/03/04 05:11:26;;;;;;;;;;;;;;;11.81;74.53;99689.22;4845111;29;20307;-82
2024/03/04 05:14:18;;;;;;;;;;;;;;;11.78;74.88;99684.47;4847788;29;20287;-81
2024/03/04 05:17:10;;;;;;;;;;;;;;;11.78;74.76;99681.75;4846430;29;19924;-83
2024/03/04 05:20:02;;;;;;;;;;;;;;;11.73;74.89;99682.00;4851940;29;19916;-82
2024/03/04 05:22:57;;;;;;;;;;;;;;;11.80;74.65;99687.63;4830374;29;19916;-83
2024/03/04 05:25:49;;;;;;;;;;;;;;;11.83;74.44;99691.59;4838303;29;19916;-83
2024/03/04 05:28:41;;;;;;;;;;;;;;;11.90;73.93;99699.94;4852419;29;20306;-84
2024/03/04 05:31:33;;;;;;;;;;;;;;;11.92;73.51;99695.75;4838230;29;19916;-83
2024/03/04 05:34:25;;;;;;;;;;;;;;;11.92;73.28;99697.66;4853644;29;19924;-81
2024/03/04 05:37:17;;;;;;;;;;;;;;;11.95;73.08;99700.47;4851414;29;19916;-81
2024/03/04 05:40:09;;;;;;;;;;;;;;;12.00;73.03;99700.22;4834154;29;19917;-79
2024/03/04 05:43:01;;;;;;;;;;;;;;;12.05;72.36;99710.06;4844337;29;20311;-81
2024/03/04 05:45:53;;;;;;;;;;;;;;;12.15;72.13;99711.50;4837089;29;19924;-81
2024/03/04 05:48:46;;;;;;;;;;;;;;;12.15;71.91;99712.28;4829526;29;20315;-81
2024/03/04 05:51:39;;;;;;;;;;;;;;;12.21;71.95;99716.34;4844291;29;19924;-81
2024/03/04 05:54:32;;;;;;;;;;;;;;;12.33;71.78;99720.94;4836733;29;19916;-80
2024/03/04 05:57:24;;;;;;;;;;;;;;;12.38;72.24;99726.13;4846813;29;19921;-83
2024/03/04 06:00:17;;;;;;;;;;;;;;;12.53;72.59;99725.34;4843642;29;19920;-81
2024/03/04 06:03:06;;;;;;;;;;;;;;;12.61;70.73;99729.00;4845367;29;19924;-81
2024/03/04 06:05:58;;;;;;;;;;;;;;;12.51;70.02;99729.53;4844349;29;19915;-81
2024/03/04 06:08:50;;;;;;;;;;;;;;;12.35;69.97;99745.91;4842743;29;20371;-81
2024/03/04 06:11:42;;;;;;;;;;;;;;;12.28;69.71;99748.44;4841329;29;20336;-82
2024/03/04 06:14:34;;;;;;;;;;;;;;;12.30;69.39;99746.94;4830890;29;20303;-81
2024/03/04 06:17:26;;;;;;;;;;;;;;;12.31;68.82;99747.75;4847748;29;19921;-81
2024/03/04 06:20:18;;;;;;;;;;;;;;;12.20;68.52;99746.66;4846671;29;19916;-82
2024/03/04 06:23:11;;;;;;;;;;;;;;;12.10;69.13;99756.16;4844104;29;19917;-83
2024/03/04 06:26:03;;;;;;;;;;;;;;;12.09;69.53;99753.78;4834821;29;20003;-81
2024/03/04 06:28:55;;;;;;;;;;;;;;;12.18;69.18;99751.69;4826274;29;19920;-83
2024/03/04 06:31:47;;;;;;;;;;;;;;;12.12;69.82;99753.88;4830724;29;19924;-82
2024/03/04 06:34:39;;;;;;;;;;;;;;;12.11;69.71;99760.47;4835426;29;19920;-83
2024/03/04 06:37:32;;;;;;;;;;;;;;;12.11;69.45;99762.38;4848363;29;20389;-83
2024/03/04 06:40:24;;;;;;;;;;;;;;;12.08;69.99;99769.34;4839197;29;19917;-82
2024/03/04 06:43:16;;;;;;;;;;;;;;;12.23;71.20;99765.06;4834729;29;19920;-82
2024/03/04 06:46:08;;;;;;;;;;;;;;;12.18;71.71;99770.78;4832242;29;20310;-82
2024/03/04 06:49:00;;;;;;;;;;;;;;;12.13;72.17;99782.72;4834567;29;19920;-82
2024/03/04 06:51:50;;;;;;;;;;;;;;;12.12;72.59;99785.78;4841698;29;20391;-82
2024/03/04 06:54:42;;;;;;;;;;;;;;;12.08;73.06;99787.63;4836873;29;19916;-82
2024/03/04 06:57:34;;;;;;;;;;;;;;;11.96;73.37;99793.91;4848529;29;19916;-82
2024/03/04 07:00:26;;;;;;;;;;;;;;;11.90;74.00;99798.81;4846409;29;20383;-82
2024/03/04 07:03:15;;;;;;;;;;;;;;;12.03;74.13;99793.31;4841146;29;19916;-82
2024/03/04 07:06:07;;;;;;;;;;;;;;;11.96;74.57;99797.44;4847801;29;19917;-82
2024/03/04 07:08:59;;;;;;;;;;;;;;;11.94;74.51;99802.41;4831449;29;19916;-82
2024/03/04 07:11:52;;;;;;;;;;;;;;;12.00;74.81;99814.66;4835268;29;19917;-82
2024/03/04 07:14:44;;;;;;;;;;;;;;;12.04;74.83;99820.19;4840773;29;19920;-82
2024/03/04 07:17:36;;;;;;;;;;;;;;;11.98;74.90;99821.63;4838567;29;19924;-82
2024/03/04 07:20:28;;;;;;;;;;;;;;;11.95;73.89;99841.34;4846446;29;19916;-82
2024/03/04 07:23:18;;;;;;;;;;;;;;;11.97;74.33;99834.44;4831913;29;20370;-82
2024/03/04 07:26:10;;;;;;;;;;;;;;;11.89;74.25;99842.72;4848292;29;19916;-82
2024/03/04 07:28:59;;;;;;;;;;;;;;;12.02;74.34;99844.31;4832692;29;19920;-82
2024/03/04 07:31:51;;;;;;;;;;;;;;;12.29;73.44;99850.91;4849657;29;19920;-82
2024/03/04 07:34:41;;;;;;;;;;;;;;;12.25;72.25;99847.25;4835099;29;20326;-83
2024/03/04 07:37:33;;;;;;;;;;;;;;;12.23;72.05;99855.81;4832783;29;19920;-82
2024/03/04 07:40:25;;;;;;;;;;;;;;;12.06;73.05;99858.81;4826126;29;19917;-82
2024/03/04 07:43:14;;;;;;;;;;;;;;;12.05;73.79;99849.03;4848650;29;19920;-82
2024/03/04 07:46:06;;;;;;;;;;;;;;;12.05;73.76;99857.22;4831174;29;19925;-83
2024/03/04 07:48:58;;;;;;;;;;;;;;;11.96;74.17;99870.19;4842265;29;19916;-82
2024/03/04 07:51:50;;;;;;;;;;;;;;;11.94;73.75;99870.53;4836947;29;19916;-82
2024/03/04 07:54:47;;;;;;;;;;;;;;;11.92;74.26;99875.56;4825711;29;19920;-82
2024/03/04 07:57:39;;;;;;;;;;;;;;;11.88;74.60;99880.09;4836464;29;19916;-82
2024/03/04 08:00:31;;;;;;;;;;;;;;;11.84;74.56;99879.19;4834700;29;19917;-83
2024/03/04 08:03:23;;;;;;;;;;;;;;;11.88;75.39;99879.31;4844038;29;19916;-82
2024/03/04 08:06:15;;;;;;;;;;;;;;;11.83;75.56;99877.63;4836637;29;19925;-82
2024/03/04 08:09:07;;;;;;;;;;;;;;;11.82;75.45;99892.38;4838325;29;19920;-83
2024/03/04 08:11:59;;;;;;;;;;;;;;;11.97;75.20;99888.13;4843642;29;19916;-83
2024/03/04 08:14:49;;;;;;;;;;;;;;;11.89;74.85;99884.41;4840751;29;20390;-83
2024/03/04 08:17:41;;;;;;;;;;;;;;;12.06;74.90;99888.78;4834980;29;19928;-83
2024/03/04 08:20:33;;;;;;;;;;;;;;;11.96;74.25;99887.34;4847088;29;19916;-83
2024/03/04 08:23:25;;;;;;;;;;;;;;;11.91;74.03;99894.97;4841479;29;20231;-83
2024/03/04 08:26:18;;;;;;;;;;;;;;;12.04;74.52;99891.06;4829068;29;19924;-83
2024/03/04 08:29:10;;;;;;;;;;;;;;;11.93;74.29;99893.50;4842561;29;19917;-82
2024/03/04 08:32:02;;;;;;;;;;;;;;;11.94;74.17;99907.88;4830293;29;19920;-82
2024/03/04 08:34:55;;;;;;;;;;;;;;;12.27;74.12;99919.41;4845486;29;20302;-80
2024/03/04 08:37:48;;;;;;;;;;;;;;;12.69;72.51;99925.25;4836293;29;19920;-82
2024/03/04 08:40:40;;;;;;;;;;;;;;;12.67;71.63;99916.63;4838704;29;19916;-82
2024/03/04 08:43:32;;;;;;;;;;;;;;;12.43;71.82;99920.25;4830841;29;19917;-82
2024/03/04 08:46:19;;;;;;;;;;;;;;;12.09;73.34;99928.97;4838510;29;19916;-81
2024/03/04 08:49:09;;;;;;;;;;;;;;;12.08;73.28;99938.31;4839023;29;19920;-82
2024/03/04 08:52:01;;;;;;;;;;;;;;;12.42;73.19;99943.19;4825601;29;19917;-81
2024/03/04 08:54:53;;;;;;;;;;;;;;;12.65;71.44;99943.44;4837217;29;19916;-82
2024/03/04 08:57:45;;;;;;;;;;;;;;;12.21;72.84;99953.47;4845291;29;19921;-81
2024/03/04 09:00:36;;;;;;;;;;;;;;;12.00;73.75;99959.06;4841544;29;19921;-80
2024/03/04 09:03:26;;;;;;;;;;;;;;;11.94;74.91;99968.63;4841297;29;19920;-81
2024/03/04 09:06:21;;;;;;;;;;;;;;;11.94;74.59;99960.44;4844966;29;19920;-80
2024/03/04 09:09:12;;;;;;;;;;;;;;;11.93;74.70;99958.88;4843266;29;19921;-81
2024/03/04 09:12:03;;;;;;;;;;;;;;;11.91;75.05;99955.69;4836319;29;20383;-81
2024/03/04 09:14:56;;;;;;;;;;;;;;;11.82;75.62;99962.41;4830887;29;19916;-81
2024/03/04 09:17:48;;;;;;;;;;;;;;;11.72;76.27;99965.56;4829318;29;19925;-82
2024/03/04 09:20:38;;;;;;;;;;;;;;;11.67;76.92;99966.56;4830292;29;19920;-81
2024/03/04 09:23:29;;;;;;;;;;;;;;;11.63;76.87;99973.03;4824049;29;19920;-82
2024/03/04 09:26:21;;;;;;;;;;;;;;;11.67;77.00;99973.94;4841913;29;19917;-82
2024/03/04 09:29:13;;;;;;;;;;;;;;;11.67;77.39;99974.75;4831991;29;19921;-80
2024/03/04 09:32:05;;;;;;;;;;;;;;;11.69;77.78;99974.38;4843340;29;19916;-82
2024/03/04 09:34:57;;;;;;;;;;;;;;;11.76;78.13;99983.63;4821182;29;19920;-81
2024/03/04 09:37:48;;;;;;;;;;;;;;;11.80;77.91;99975.56;4838172;29;19924;-80
2024/03/04 09:40:43;;;;;;;;;;;;;;;12.16;76.12;99989.16;4835833;29;19924;-82
2024/03/04 09:43:38;;;;;;;;;;;;;;;12.11;74.92;99974.97;4828877;29;19920;-82
2024/03/04 09:46:31;;;;;;;;;;;;;;;12.24;74.65;99979.28;4843178;29;19920;-81
2024/03/04 09:49:23;;;;;;;;;;;;;;;12.28;74.46;99988.34;4833839;29;19916;-83
2024/03/04 09:52:16;;;;;;;;;;;;;;;12.84;72.72;99987.25;4845240;29;19920;-81
2024/03/04 09:55:11;;;;;;;;;;;;;;;12.97;71.95;99981.72;4842841;29;19916;-85
2024/03/04 09:58:03;;;;;;;;;;;;;;;12.98;71.23;99986.03;4847438;29;19928;-82
2024/03/04 10:00:57;;;;;;;;;;;;;;;13.31;70.92;99981.09;4841783;29;20446;-83
2024/03/04 10:03:49;;;;;;;;;;;;;;;13.17;70.15;99980.72;4842269;29;19916;-83
2024/03/04 10:06:40;;;;;;;;;;;;;;;13.46;70.10;99980.31;4843809;29;20414;-82
2024/03/04 10:09:32;;;;;;;;;;;;;;;13.77;69.40;99984.16;4846534;29;19916;-81
2024/03/04 10:12:24;;;;;;;;;;;;;;;13.96;69.14;99987.00;4845192;29;19920;-81
2024/03/04 10:15:16;;;;;;;;;;;;;;;13.96;68.62;99985.06;4848934;29;20407;-81
2024/03/04 10:18:14;;;;;;;;;;;;;;;14.01;69.22;99990.25;4845171;29;19917;-81
2024/03/04 10:21:06;;;;;;;;;;;;;;;14.02;69.78;99994.53;4831778;29;19924;-81
2024/03/04 10:24:17;;;;;;;;;;;;;;;13.71;68.82;99987.16;4848112;29;19920;-82
2024/03/04 10:27:09;;;;;;;;;;;;;;;13.38;69.91;99986.75;4837195;29;19916;-82
2024/03/04 10:30:14;;;;;;;;;;;;;;;13.18;70.59;99996.75;4840315;29;20322;-81
2024/03/04 10:33:06;;;;;;;;;;;;;;;13.13;71.25;99994.28;4826818;29;20755;-80
2024/03/04 10:36:14;;;;;;;;;;;;;;;12.95;72.37;99989.47;4834634;29;19921;-84
2024/03/04 10:39:05;;;;;;;;;;;;;;;12.94;72.27;99996.06;4829940;29;19924;-83
2024/03/04 10:41:57;;;;;;;;;;;;;;;12.85;72.50;99993.47;4849312;29;19920;-83
2024/03/04 10:44:51;;;;;;;;;;;;;;;12.86;73.09;100001.31;4833077;29;19916;-83
2024/03/04 10:47:46;;;;;;;;;;;;;;;12.90;73.92;100008.81;4841750;29;20382;-84
2024/03/04 10:50:41;;;;;;;;;;;;;;;13.02;73.74;100003.28;4846431;29;19916;-83
2024/03/04 10:53:33;;;;;;;;;;;;;;;12.97;72.68;100009.00;4829891;29;19916;-84
2024/03/04 10:56:25;;;;;;;;;;;;;;;13.14;71.87;100009.53;4823230;29;19921;-83
2024/03/04 10:59:18;;;;;;;;;;;;;;;13.18;71.69;100002.22;4844015;29;19921;-82
2024/03/04 11:02:13;;;;;;;;;;;;;;;13.13;71.34;100012.59;4843820;29;19916;-83
2024/03/04 11:05:01;;;;;;;;;;;;;;;13.04;71.09;100014.66;4847080;29;19920;-83
2024/03/04 11:07:49;;;;;;;;;;;;;;;13.03;71.76;100013.06;4831674;29;19917;-82
2024/03/04 11:10:43;;;;;;;;;;;;;;;12.95;71.49;100014.84;4846317;29;20306;-84
2024/03/04 11:13:39;;;;;;;;;;;;;;;12.89;73.07;100016.22;4836343;29;19917;-84
2024/03/04 11:16:37;;;;;;;;;;;;;;;12.76;74.46;100007.28;4837291;29;19920;-85
2024/03/04 11:19:46;;;;;;;;;;;;;;;12.74;75.49;100011.50;4845242;29;19916;-85
2024/03/04 11:22:36;;;;;;;;;;;;;;;12.65;75.69;100011.63;4842648;29;20388;-83
2024/03/04 11:25:29;;;;;;;;;;;;;;;12.72;75.93;100011.84;4831526;29;19920;-84
2024/03/04 11:28:22;;;;;;;;;;;;;;;12.65;75.60;100006.16;4846044;29;19916;-84
2024/03/04 11:31:14;;;;;;;;;;;;;;;12.71;73.80;100007.53;4838751;29;19932;-83
2024/03/04 11:34:10;;;;;;;;;;;;;;;12.76;72.38;99996.34;4854308;29;19916;-84
2024/03/04 11:37:00;;;;;;;;;;;;;;;12.84;71.92;99998.16;4843135;29;20174;-84
2024/03/04 11:39:52;;;;;;;;;;;;;;;12.88;71.64;100002.91;4822381;29;19916;-84
2024/03/04 11:42:44;;;;;;;;;;;;;;;12.99;71.09;99993.09;4845794;29;19932;-84
2024/03/04 11:45:38;;;;;;;;;;;;;;;13.06;70.90;99993.25;4829971;29;19916;-82
2024/03/04 11:48:33;;;;;;;;;;;;;;;13.16;69.53;99987.31;4833141;29;19916;-84
2024/03/04 11:51:45;;;;;;;;;;;;;;;13.30;71.14;99982.25;4834511;29;19916;-84
2024/03/04 11:54:37;;;;;;;;;;;;;;;13.42;70.13;99987.63;4840702;29;20307;-84
2024/03/04 11:57:29;;;;;;;;;;;;;;;13.46;69.65;99985.75;4828979;29;19920;-84
2024/03/04 12:00:23;;;;;;;;;;;;;;;13.59;69.62;99990.00;4839931;29;20383;-83
2024/03/04 12:03:16;;;;;;;;;;;;;;;13.59;69.30;99990.00;4826646;29;19916;-83
2024/03/04 12:06:08;;;;;;;;;;;;;;;13.57;68.39;99992.28;4845510;29;19920;-84
2024/03/04 12:09:00;;;;;;;;;;;;;;;13.58;68.03;99984.91;4836751;29;20406;-84
2024/03/04 12:11:52;;;;;;;;;;;;;;;13.71;67.19;99986.41;4843659;29;19916;-83
2024/03/04 12:14:43;;;;;;;;;;;;;;;13.81;67.65;99985.88;4824216;29;19920;-84
2024/03/04 12:17:36;;;;;;;;;;;;;;;13.86;66.75;99987.53;4835071;29;19943;-83
2024/03/04 12:20:29;;;;;;;;;;;;;;;13.94;66.26;99990.06;4844739;29;19916;-84
2024/03/04 12:23:21;;;;;;;;;;;;;;;14.04;66.10;99986.00;4843028;29;19916;-84
2024/03/04 12:26:16;;;;;;;;;;;;;;;14.15;64.76;99973.34;4847039;29;19918;-84
2024/03/04 12:29:11;;;;;;;;;;;;;;;14.26;64.44;99974.38;4839079;29;20371;-84
2024/03/04 12:32:03;;;;;;;;;;;;;;;14.36;64.62;99979.31;4832787;29;20318;-83
2024/03/04 12:34:55;;;;;;;;;;;;;;;14.38;63.10;99989.88;4846090;29;19920;-84
2024/03/04 12:37:47;;;;;;;;;;;;;;;14.40;62.38;99985.66;4843493;29;19928;-85
2024/03/04 12:40:39;;;;;;;;;;;;;;;14.57;62.91;99992.66;4842616;29;19916;-84
2024/03/04 12:43:31;;;;;;;;;;;;;;;14.60;61.45;99989.19;4824442;29;19916;-82
2024/03/04 12:46:21;;;;;;;;;;;;;;;14.47;60.99;99995.97;4842087;29;19917;-83
2024/03/04 12:49:16;;;;;;;;;;;;;;;14.43;61.02;99998.59;4825333;29;19917;-83
2024/03/04 12:52:08;;;;;;;;;;;;;;;14.47;61.39;99994.03;4830559;29;19923;-84
2024/03/04 12:55:00;;;;;;;;;;;;;;;14.44;60.45;99992.00;4839908;29;19920;-84
2024/03/04 12:57:53;;;;;;;;;;;;;;;14.45;60.73;99993.59;4830217;29;19920;-84
2024/03/04 13:00:44;;;;;;;;;;;;;;;14.53;61.23;99991.78;4842502;29;19916;-83
2024/03/04 13:03:37;;;;;;;;;;;;;;;14.63;60.95;99990.44;4842577;29;19916;-84
2024/03/04 13:06:29;;;;;;;;;;;;;;;14.60;60.33;99993.88;4831460;29;19916;-83
2024/03/04 13:09:21;;;;;;;;;;;;;;;14.66;59.31;99992.44;4845496;29;19920;-84
2024/03/04 13:12:13;;;;;;;;;;;;;;;14.69;57.95;99980.75;4836721;29;19917;-84
2024/03/04 13:15:06;;;;;;;;;;;;;;;14.71;58.77;99978.47;4839607;29;19916;-84
2024/03/04 13:17:57;;;;;;;;;;;;;;;14.80;59.04;99982.56;4836413;29;20316;-85
2024/03/04 13:20:49;;;;;;;;;;;;;;;14.75;58.81;99990.28;4846599;29;20310;-85
2024/03/04 13:23:41;;;;;;;;;;;;;;;14.72;59.31;99980.06;4838373;29;19920;-83
2024/03/04 13:26:31;;;;;;;;;;;;;;;14.73;59.24;99993.38;4849357;29;19920;-82
2024/03/04 13:29:23;;;;;;;;;;;;;;;14.71;57.95;99992.16;4845421;29;19916;-83
2024/03/04 13:32:15;;;;;;;;;;;;;;;14.75;57.73;100001.22;4841771;29;19916;-83
2024/03/04 13:35:07;;;;;;;;;;;;;;;14.79;57.62;100002.06;4841534;29;19925;-82
2024/03/04 13:37:57;;;;;;;;;;;;;;;14.75;58.33;100002.03;4832186;29;19928;-83
2024/03/04 13:40:49;;;;;;;;;;;;;;;14.75;58.26;99985.59;4829441;29;19916;-83
2024/03/04 13:43:40;;;;;;;;;;;;;;;14.69;58.29;99987.03;4826471;29;19920;-85
2024/03/04 13:46:32;;;;;;;;;;;;;;;14.76;57.63;99983.66;4828752;29;19921;-83
2024/03/04 13:49:24;;;;;;;;;;;;;;;14.82;57.15;99984.94;4835871;29;19916;-83
2024/03/04 13:52:16;;;;;;;;;;;;;;;14.93;57.83;99969.53;4842398;29;20398;-83
2024/03/04 13:55:08;;;;;;;;;;;;;;;15.11;58.82;99964.38;4842995;29;19924;-82
2024/03/04 13:57:59;;;;;;;;;;;;;;;15.21;57.14;99964.56;4830899;29;20397;-83
2024/03/04 14:00:49;;;;;;;;;;;;;;;15.29;55.70;99960.00;4841993;29;19916;-83
2024/03/04 14:03:38;;;;;;;;;;;;;;;15.39;55.27;99964.84;4832455;29;19916;-82
2024/03/04 14:06:27;;;;;;;;;;;;;;;15.44;54.67;99956.34;4843627;29;19924;-83
2024/03/04 14:09:19;;;;;;;;;;;;;;;15.37;54.79;99951.53;4835138;29;19916;-84
2024/03/04 14:12:11;;;;;;;;;;;;;;;15.41;55.51;99946.91;4830975;29;19917;-82
2024/03/04 14:15:03;;;;;;;;;;;;;;;15.50;54.68;99941.16;4841937;29;19920;-83
2024/03/04 14:17:55;;;;;;;;;;;;;;;15.56;55.21;99947.16;4836644;29;20383;-81
2024/03/04 14:20:47;;;;;;;;;;;;;;;15.62;55.64;99932.78;4843847;29;19921;-81
2024/03/04 14:23:39;;;;;;;;;;;;;;;15.62;55.03;99927.31;4839948;29;20307;-82
2024/03/04 14:26:31;;;;;;;;;;;;;;;15.73;54.69;99933.75;4829138;29;19917;-82
2024/03/04 14:29:23;;;;;;;;;;;;;;;15.79;53.89;99935.03;4843564;29;19924;-83
2024/03/04 14:32:15;;;;;;;;;;;;;;;15.74;53.42;99929.88;4838260;29;19916;-83
2024/03/04 14:35:07;;;;;;;;;;;;;;;15.71;53.97;99929.78;4824107;29;20390;-83
2024/03/04 14:37:57;;;;;;;;;;;;;;;15.78;54.54;99924.41;4838585;29;19928;-83
2024/03/04 14:40:48;;;;;;;;;;;;;;;15.84;54.54;99931.19;4842145;29;19920;-82
2024/03/04 14:43:38;;;;;;;;;;;;;;;15.87;55.53;99935.91;4842828;29;20398;-83
2024/03/04 14:46:30;;;;;;;;;;;;;;;15.88;54.51;99928.47;4848241;29;19916;-82
2024/03/04 14:49:22;;;;;;;;;;;;;;;15.99;53.84;99927.47;4839943;29;19916;-81
2024/03/04 14:52:14;;;;;;;;;;;;;;;15.91;53.71;99936.75;4827747;29;19920;-82
2024/03/04 14:55:06;;;;;;;;;;;;;;;16.06;54.48;99937.72;4843475;29;19916;-83